sensor_id;sensor_type;location;lat;lon;timestamp;temperature;humidity
31731;DHT22;18310;55.586;12.286;2023-03-08T00:00:15;2.10;61.20
31731;DHT22;18310;55.586;12.286;2023-03-08T00:03:22;2.10;62.00
31731;DHT22;18310;55.586;12.286;2023-03-08T00:06:26;2.00;61.20
31731;DHT22;18310;55.586;12.286;2023-03-08T00:09:31;3.80;62.10
31731;DHT22;18310;55.586;12.286;2023-03-08T00:12:35;2.10;61.20
31731;DHT22;18310;55.586;12.286;2023-03-08T00:15:39;2.10;61.10
31731;DHT22;18310;55.586;12.286;2023-03-08T00:18:42;2.10;61.10
31731;DHT22;18310;55.586;12.286;2023-03-08T00:21:45;2.10;61.10
31731;DHT22;18310;55.586;12.286;2023-03-08T00:24:52;2.10;61.00
31731;DHT22;18310;55.586;12.286;2023-03-08T00:27:55;2.10;61.00
31731;DHT22;18310;55.586;12.286;2023-03-08T00:31:00;2.10;61.10
31731;DHT22;18310;55.586;12.286;2023-03-08T00:34:05;2.10;60.60
31731;DHT22;18310;55.586;12.286;2023-03-08T00:37:09;2.10;60.70
31731;DHT22;18310;55.586;12.286;2023-03-08T00:40:14;1.30;60.10
31731;DHT22;18310;55.586;12.286;2023-03-08T00:43:18;2.10;60.50
31731;DHT22;18310;55.586;12.286;2023-03-08T00:46:21;2.00;60.70
31731;DHT22;18310;55.586;12.286;2023-03-08T00:49:26;2.70;61.20
31731;DHT22;18310;55.586;12.286;2023-03-08T00:52:29;0.90;60.30
31731;DHT22;18310;55.586;12.286;2023-03-08T00:55:34;2.10;61.10
31731;DHT22;18310;55.586;12.286;2023-03-08T00:58:39;2.00;61.10
31731;DHT22;18310;55.586;12.286;2023-03-08T01:01:43;2.30;61.00
31731;DHT22;18310;55.586;12.286;2023-03-08T01:04:47;1.90;60.50
31731;DHT22;18310;55.586;12.286;2023-03-08T01:07:50;2.10;60.20
31731;DHT22;18310;55.586;12.286;2023-03-08T01:10:57;2.10;60.80
31731;DHT22;18310;55.586;12.286;2023-03-08T01:14:02;2.10;60.70
31731;DHT22;18310;55.586;12.286;2023-03-08T01:17:07;0.60;59.30
31731;DHT22;18310;55.586;12.286;2023-03-08T01:20:11;2.10;60.70
31731;DHT22;18310;55.586;12.286;2023-03-08T01:26:21;2.00;60.20
31731;DHT22;18310;55.586;12.286;2023-03-08T01:29:26;2.10;60.70
31731;DHT22;18310;55.586;12.286;2023-03-08T01:38:39;2.10;60.30
31731;DHT22;18310;55.586;12.286;2023-03-08T01:41:44;2.90;60.80
31731;DHT22;18310;55.586;12.286;2023-03-08T01:44:51;0.20;59.80
31731;DHT22;18310;55.586;12.286;2023-03-08T01:47:55;2.20;60.70
31731;DHT22;18310;55.586;12.286;2023-03-08T01:51:00;2.20;60.80
31731;DHT22;18310;55.586;12.286;2023-03-08T01:54:08;2.30;60.60
31731;DHT22;18310;55.586;12.286;2023-03-08T01:57:18;0.60;59.10
31731;DHT22;18310;55.586;12.286;2023-03-08T02:00:24;2.40;60.50
31731;DHT22;18310;55.586;12.286;2023-03-08T02:03:29;2.40;60.50
31731;DHT22;18310;55.586;12.286;2023-03-08T02:06:32;1.30;59.90
31731;DHT22;18310;55.586;12.286;2023-03-08T02:09:36;2.50;60.20
31731;DHT22;18310;55.586;12.286;2023-03-08T02:12:42;2.50;60.20
31731;DHT22;18310;55.586;12.286;2023-03-08T02:15:48;2.50;60.50
31731;DHT22;18310;55.586;12.286;2023-03-08T02:18:58;2.60;60.50
31731;DHT22;18310;55.586;12.286;2023-03-08T02:22:07;5.00;61.40
31731;DHT22;18310;55.586;12.286;2023-03-08T02:25:15;3.60;61.80
31731;DHT22;18310;55.586;12.286;2023-03-08T02:28:22;0.80;60.90
31731;DHT22;18310;55.586;12.286;2023-03-08T02:31:28;2.70;60.90
31731;DHT22;18310;55.586;12.286;2023-03-08T02:34:31;2.70;62.00
31731;DHT22;18310;55.586;12.286;2023-03-08T02:46:48;2.60;61.00
31731;DHT22;18310;55.586;12.286;2023-03-08T03:05:11;5.20;64.20
31731;DHT22;18310;55.586;12.286;2023-03-08T03:08:15;2.10;61.70
31731;DHT22;18310;55.586;12.286;2023-03-08T03:11:21;2.00;61.70
31731;DHT22;18310;55.586;12.286;2023-03-08T03:14:27;2.00;62.30
31731;DHT22;18310;55.586;12.286;2023-03-08T03:17:30;2.00;62.00
31731;DHT22;18310;55.586;12.286;2023-03-08T03:20:34;2.00;62.40
31731;DHT22;18310;55.586;12.286;2023-03-08T03:26:43;2.00;62.20
31731;DHT22;18310;55.586;12.286;2023-03-08T03:29:47;3.40;63.40
31731;DHT22;18310;55.586;12.286;2023-03-08T03:32:50;1.90;62.40
31731;DHT22;18310;55.586;12.286;2023-03-08T03:35:54;1.90;62.40
31731;DHT22;18310;55.586;12.286;2023-03-08T03:38:57;1.80;62.20
31731;DHT22;18310;55.586;12.286;2023-03-08T03:42:04;1.80;62.40
31731;DHT22;18310;55.586;12.286;2023-03-08T03:45:09;1.70;62.20
31731;DHT22;18310;55.586;12.286;2023-03-08T03:48:13;0.30;61.60
31731;DHT22;18310;55.586;12.286;2023-03-08T03:51:20;1.70;62.50
31731;DHT22;18310;55.586;12.286;2023-03-08T03:54:25;1.70;62.20
31731;DHT22;18310;55.586;12.286;2023-03-08T03:57:31;1.60;61.10
31731;DHT22;18310;55.586;12.286;2023-03-08T04:00:34;1.60;61.20
31731;DHT22;18310;55.586;12.286;2023-03-08T04:03:38;1.50;60.90
31731;DHT22;18310;55.586;12.286;2023-03-08T04:06:41;1.50;60.80
31731;DHT22;18310;55.586;12.286;2023-03-08T04:09:45;1.40;60.90
31731;DHT22;18310;55.586;12.286;2023-03-08T04:12:51;1.30;60.70
31731;DHT22;18310;55.586;12.286;2023-03-08T04:15:56;1.20;60.30
31731;DHT22;18310;55.586;12.286;2023-03-08T04:19:00;0.00;59.60
31731;DHT22;18310;55.586;12.286;2023-03-08T04:22:06;2.50;61.00
31731;DHT22;18310;55.586;12.286;2023-03-08T04:28:15;2.10;60.40
31731;DHT22;18310;55.586;12.286;2023-03-08T04:31:20;1.70;60.70
31731;DHT22;18310;55.586;12.286;2023-03-08T04:34:26;0.80;60.30
31731;DHT22;18310;55.586;12.286;2023-03-08T04:37:30;0.70;60.50
31731;DHT22;18310;55.586;12.286;2023-03-08T04:40:34;0.70;60.30
31731;DHT22;18310;55.586;12.286;2023-03-08T04:44:00;0.60;61.10
31731;DHT22;18310;55.586;12.286;2023-03-08T04:47:04;1.20;61.00
31731;DHT22;18310;55.586;12.286;2023-03-08T04:50:09;0.60;60.70
31731;DHT22;18310;55.586;12.286;2023-03-08T04:53:13;0.50;60.40
31731;DHT22;18310;55.586;12.286;2023-03-08T04:56:17;0.50;60.60
31731;DHT22;18310;55.586;12.286;2023-03-08T04:59:22;0.40;60.40
31731;DHT22;18310;55.586;12.286;2023-03-08T05:02:25;0.30;60.00
31731;DHT22;18310;55.586;12.286;2023-03-08T05:05:29;-1.80;59.30
31731;DHT22;18310;55.586;12.286;2023-03-08T05:08:32;1.40;61.20
31731;DHT22;18310;55.586;12.286;2023-03-08T05:11:35;0.20;60.60
31731;DHT22;18310;55.586;12.286;2023-03-08T05:14:40;0.20;60.70
31731;DHT22;18310;55.586;12.286;2023-03-08T05:17:43;-0.10;60.90
31731;DHT22;18310;55.586;12.286;2023-03-08T05:20:52;0.10;60.90
31731;DHT22;18310;55.586;12.286;2023-03-08T05:23:57;0.00;60.90
31731;DHT22;18310;55.586;12.286;2023-03-08T05:27:02;0.00;61.10
31731;DHT22;18310;55.586;12.286;2023-03-08T05:30:08;0.00;61.40
31731;DHT22;18310;55.586;12.286;2023-03-08T05:33:13;0.00;61.60
31731;DHT22;18310;55.586;12.286;2023-03-08T05:36:17;0.90;61.90
31731;DHT22;18310;55.586;12.286;2023-03-08T05:39:22;0.00;61.20
31731;DHT22;18310;55.586;12.286;2023-03-08T05:42:26;0.00;61.10
31731;DHT22;18310;55.586;12.286;2023-03-08T05:45:34;0.00;60.90
31731;DHT22;18310;55.586;12.286;2023-03-08T05:48:38;0.00;60.90
31731;DHT22;18310;55.586;12.286;2023-03-08T05:51:42;-0.10;60.90
31731;DHT22;18310;55.586;12.286;2023-03-08T05:54:46;1.40;61.70
31731;DHT22;18310;55.586;12.286;2023-03-08T05:57:50;-0.10;61.00
31731;DHT22;18310;55.586;12.286;2023-03-08T06:00:54;-0.10;60.70
31731;DHT22;18310;55.586;12.286;2023-03-08T06:03:59;-0.10;60.60
31731;DHT22;18310;55.586;12.286;2023-03-08T06:07:02;0.00;60.90
31731;DHT22;18310;55.586;12.286;2023-03-08T06:10:07;-0.10;61.70
31731;DHT22;18310;55.586;12.286;2023-03-08T06:13:12;0.00;61.80
31731;DHT22;18310;55.586;12.286;2023-03-08T06:16:16;0.10;61.90
31731;DHT22;18310;55.586;12.286;2023-03-08T06:19:20;0.10;61.10
31731;DHT22;18310;55.586;12.286;2023-03-08T06:22:23;0.20;60.80
31731;DHT22;18310;55.586;12.286;2023-03-08T06:25:27;0.20;60.90
31731;DHT22;18310;55.586;12.286;2023-03-08T06:28:31;0.20;60.60
31731;DHT22;18310;55.586;12.286;2023-03-08T06:31:35;0.20;60.50
31731;DHT22;18310;55.586;12.286;2023-03-08T06:34:40;0.30;60.60
31731;DHT22;18310;55.586;12.286;2023-03-08T06:37:44;0.30;59.90
31731;DHT22;18310;55.586;12.286;2023-03-08T06:40:48;0.30;60.50
31731;DHT22;18310;55.586;12.286;2023-03-08T06:43:52;0.40;60.50
31731;DHT22;18310;55.586;12.286;2023-03-08T06:46:56;0.50;60.60
31731;DHT22;18310;55.586;12.286;2023-03-08T06:50:01;0.00;60.50
31731;DHT22;18310;55.586;12.286;2023-03-08T06:56:12;0.70;60.60
31731;DHT22;18310;55.586;12.286;2023-03-08T06:59:17;0.80;61.40
31731;DHT22;18310;55.586;12.286;2023-03-08T07:02:22;0.90;61.40
31731;DHT22;18310;55.586;12.286;2023-03-08T07:05:25;1.10;61.80
31731;DHT22;18310;55.586;12.286;2023-03-08T07:08:29;1.40;62.50
31731;DHT22;18310;55.586;12.286;2023-03-08T07:11:33;1.80;63.10
31731;DHT22;18310;55.586;12.286;2023-03-08T07:14:37;2.20;63.30
31731;DHT22;18310;55.586;12.286;2023-03-08T07:17:43;2.70;63.10
31731;DHT22;18310;55.586;12.286;2023-03-08T07:20:51;3.20;62.60
31731;DHT22;18310;55.586;12.286;2023-03-08T07:23:54;2.40;61.30
31731;DHT22;18310;55.586;12.286;2023-03-08T07:26:58;4.00;61.70
31731;DHT22;18310;55.586;12.286;2023-03-08T07:30:02;1.40;58.80
31731;DHT22;18310;55.586;12.286;2023-03-08T07:33:10;4.70;60.00
31731;DHT22;18310;55.586;12.286;2023-03-08T07:36:14;4.80;57.70
31731;DHT22;18310;55.586;12.286;2023-03-08T07:39:20;5.20;57.20
31731;DHT22;18310;55.586;12.286;2023-03-08T07:42:24;5.80;58.10
31731;DHT22;18310;55.586;12.286;2023-03-08T07:45:29;4.10;56.90
31731;DHT22;18310;55.586;12.286;2023-03-08T07:48:36;4.80;56.40
31731;DHT22;18310;55.586;12.286;2023-03-08T07:51:40;4.80;57.10
31731;DHT22;18310;55.586;12.286;2023-03-08T08:03:55;4.80;56.50
31731;DHT22;18310;55.586;12.286;2023-03-08T08:07:00;4.80;56.60
31731;DHT22;18310;55.586;12.286;2023-03-08T08:10:06;4.90;56.70
31731;DHT22;18310;55.586;12.286;2023-03-08T08:13:11;5.70;57.40
31731;DHT22;18310;55.586;12.286;2023-03-08T08:16:15;5.80;56.80
31731;DHT22;18310;55.586;12.286;2023-03-08T08:19:20;5.10;56.60
31731;DHT22;18310;55.586;12.286;2023-03-08T08:22:23;5.10;55.00
31731;DHT22;18310;55.586;12.286;2023-03-08T08:25:27;5.60;56.00
31731;DHT22;18310;55.586;12.286;2023-03-08T08:28:31;6.00;56.80
31731;DHT22;18310;55.586;12.286;2023-03-08T08:31:35;5.50;54.70
31731;DHT22;18310;55.586;12.286;2023-03-08T08:34:40;5.50;54.20
31731;DHT22;18310;55.586;12.286;2023-03-08T08:37:43;5.50;53.70
31731;DHT22;18310;55.586;12.286;2023-03-08T08:40:47;5.60;54.30
31731;DHT22;18310;55.586;12.286;2023-03-08T08:43:50;5.60;53.00
31731;DHT22;18310;55.586;12.286;2023-03-08T08:46:53;5.70;53.00
31731;DHT22;18310;55.586;12.286;2023-03-08T08:49:58;5.70;53.80
31731;DHT22;18310;55.586;12.286;2023-03-08T08:53:01;5.10;52.60
31731;DHT22;18310;55.586;12.286;2023-03-08T08:56:12;5.80;52.80
31731;DHT22;18310;55.586;12.286;2023-03-08T08:59:28;5.80;51.20
31731;DHT22;18310;55.586;12.286;2023-03-08T09:02:32;5.90;52.00
31731;DHT22;18310;55.586;12.286;2023-03-08T09:05:40;6.60;52.70
31731;DHT22;18310;55.586;12.286;2023-03-08T09:08:44;6.00;51.50
31731;DHT22;18310;55.586;12.286;2023-03-08T09:14:57;6.10;50.90
31731;DHT22;18310;55.586;12.286;2023-03-08T09:18:00;6.30;50.60
31731;DHT22;18310;55.586;12.286;2023-03-08T09:21:05;6.30;51.30
31731;DHT22;18310;55.586;12.286;2023-03-08T09:24:10;6.30;51.20
31731;DHT22;18310;55.586;12.286;2023-03-08T09:27:14;6.40;50.90
31731;DHT22;18310;55.586;12.286;2023-03-08T09:30:17;6.50;50.80
31731;DHT22;18310;55.586;12.286;2023-03-08T09:33:22;6.60;50.60
31731;DHT22;18310;55.586;12.286;2023-03-08T09:36:27;6.60;50.30
31731;DHT22;18310;55.586;12.286;2023-03-08T09:39:31;6.70;49.70
31731;DHT22;18310;55.586;12.286;2023-03-08T09:42:35;6.80;49.70
31731;DHT22;18310;55.586;12.286;2023-03-08T09:45:40;4.00;47.10
31731;DHT22;18310;55.586;12.286;2023-03-08T09:48:47;6.90;49.30
31731;DHT22;18310;55.586;12.286;2023-03-08T09:52:01;7.00;48.30
31731;DHT22;18310;55.586;12.286;2023-03-08T09:55:15;7.40;48.40
31731;DHT22;18310;55.586;12.286;2023-03-08T09:58:32;7.10;48.40
31731;DHT22;18310;55.586;12.286;2023-03-08T10:01:46;7.20;48.70
31731;DHT22;18310;55.586;12.286;2023-03-08T10:05:01;7.20;48.20
31731;DHT22;18310;55.586;12.286;2023-03-08T10:08:19;7.30;47.60
31731;DHT22;18310;55.586;12.286;2023-03-08T10:11:31;7.30;47.90
31731;DHT22;18310;55.586;12.286;2023-03-08T10:14:42;7.00;47.30
31731;DHT22;18310;55.586;12.286;2023-03-08T10:17:53;7.40;47.40
31731;DHT22;18310;55.586;12.286;2023-03-08T10:20:59;7.50;47.70
31731;DHT22;18310;55.586;12.286;2023-03-08T10:24:14;7.60;46.60
31731;DHT22;18310;55.586;12.286;2023-03-08T10:27:23;7.60;45.30
31731;DHT22;18310;55.586;12.286;2023-03-08T10:30:33;7.60;46.50
31731;DHT22;18310;55.586;12.286;2023-03-08T10:33:37;7.70;45.50
31731;DHT22;18310;55.586;12.286;2023-03-08T10:36:49;7.70;46.40
31731;DHT22;18310;55.586;12.286;2023-03-08T10:40:00;7.80;44.40
31731;DHT22;18310;55.586;12.286;2023-03-08T10:43:16;8.50;45.10
31731;DHT22;18310;55.586;12.286;2023-03-08T10:46:29;7.90;44.30
31731;DHT22;18310;55.586;12.286;2023-03-08T10:49:34;8.10;45.20
31731;DHT22;18310;55.586;12.286;2023-03-08T10:52:37;8.10;45.10
31731;DHT22;18310;55.586;12.286;2023-03-08T10:55:45;8.20;45.20
31731;DHT22;18310;55.586;12.286;2023-03-08T10:58:53;8.30;44.30
31731;DHT22;18310;55.586;12.286;2023-03-08T11:02:01;8.40;42.40
31731;DHT22;18310;55.586;12.286;2023-03-08T11:05:19;8.40;43.40
31731;DHT22;18310;55.586;12.286;2023-03-08T11:08:29;7.20;41.50
31731;DHT22;18310;55.586;12.286;2023-03-08T11:11:41;8.40;42.40
31731;DHT22;18310;55.586;12.286;2023-03-08T11:14:44;8.40;40.50
31731;DHT22;18310;55.586;12.286;2023-03-08T11:17:50;8.90;42.30
31731;DHT22;18310;55.586;12.286;2023-03-08T11:20:59;8.30;41.40
31731;DHT22;18310;55.586;12.286;2023-03-08T11:24:22;8.30;42.10
31731;DHT22;18310;55.586;12.286;2023-03-08T11:28:06;8.20;41.20
31731;DHT22;18310;55.586;12.286;2023-03-08T11:34:52;9.30;40.00
31731;DHT22;18310;55.586;12.286;2023-03-08T11:38:10;8.10;41.80
31731;DHT22;18310;55.586;12.286;2023-03-08T11:41:22;8.10;38.90
31731;DHT22;18310;55.586;12.286;2023-03-08T11:44:54;8.20;39.50
31731;DHT22;18310;55.586;12.286;2023-03-08T11:48:27;8.90;40.10
31731;DHT22;18310;55.586;12.286;2023-03-08T11:51:58;7.90;38.20
31731;DHT22;18310;55.586;12.286;2023-03-08T11:55:32;8.20;39.90
31731;DHT22;18310;55.586;12.286;2023-03-08T11:58:47;7.70;38.10
31731;DHT22;18310;55.586;12.286;2023-03-08T12:01:58;7.70;39.30
31731;DHT22;18310;55.586;12.286;2023-03-08T12:05:11;7.60;39.00
31731;DHT22;18310;55.586;12.286;2023-03-08T12:08:22;7.60;37.60
31731;DHT22;18310;55.586;12.286;2023-03-08T12:11:31;7.50;39.70
31731;DHT22;18310;55.586;12.286;2023-03-08T12:14:45;7.50;39.10
31731;DHT22;18310;55.586;12.286;2023-03-08T12:17:58;7.50;38.30
31731;DHT22;18310;55.586;12.286;2023-03-08T12:21:10;9.30;37.20
31731;DHT22;18310;55.586;12.286;2023-03-08T12:24:38;8.60;39.40
31731;DHT22;18310;55.586;12.286;2023-03-08T12:27:54;7.60;39.90
31731;DHT22;18310;55.586;12.286;2023-03-08T12:31:16;7.50;38.80
31731;DHT22;18310;55.586;12.286;2023-03-08T12:34:37;7.40;37.10
31731;DHT22;18310;55.586;12.286;2023-03-08T12:37:42;8.50;37.00
31731;DHT22;18310;55.586;12.286;2023-03-08T12:40:56;7.40;38.00
31731;DHT22;18310;55.586;12.286;2023-03-08T12:44:00;7.90;39.00
31731;DHT22;18310;55.586;12.286;2023-03-08T12:47:19;7.40;33.40
31731;DHT22;18310;55.586;12.286;2023-03-08T12:50:25;7.40;35.40
31731;DHT22;18310;55.586;12.286;2023-03-08T12:53:36;7.30;35.70
31731;DHT22;18310;55.586;12.286;2023-03-08T12:56:50;9.90;38.50
31731;DHT22;18310;55.586;12.286;2023-03-08T12:59:58;8.50;36.20
31731;DHT22;18310;55.586;12.286;2023-03-08T13:03:25;7.10;37.10
31731;DHT22;18310;55.586;12.286;2023-03-08T13:10:28;7.10;35.20
31731;DHT22;18310;55.586;12.286;2023-03-08T13:13:44;7.00;36.70
31731;DHT22;18310;55.586;12.286;2023-03-08T13:16:53;7.00;36.20
31731;DHT22;18310;55.586;12.286;2023-03-08T13:20:00;8.30;37.70
31731;DHT22;18310;55.586;12.286;2023-03-08T13:23:21;5.00;34.70
31731;DHT22;18310;55.586;12.286;2023-03-08T13:26:46;6.90;35.70
31731;DHT22;18310;55.586;12.286;2023-03-08T13:30:21;6.90;35.50
31731;DHT22;18310;55.586;12.286;2023-03-08T13:33:28;6.80;36.70
31731;DHT22;18310;55.586;12.286;2023-03-08T13:39:50;5.00;35.70
31731;DHT22;18310;55.586;12.286;2023-03-08T13:42:56;6.90;36.10
31731;DHT22;18310;55.586;12.286;2023-03-08T13:46:05;6.90;37.00
31731;DHT22;18310;55.586;12.286;2023-03-08T13:49:21;6.90;37.10
31731;DHT22;18310;55.586;12.286;2023-03-08T13:52:30;8.90;35.70
31731;DHT22;18310;55.586;12.286;2023-03-08T13:55:41;6.90;36.60
31731;DHT22;18310;55.586;12.286;2023-03-08T13:58:47;6.90;36.40
31731;DHT22;18310;55.586;12.286;2023-03-08T14:01:53;6.90;37.30
31731;DHT22;18310;55.586;12.286;2023-03-08T14:04:58;6.90;37.30
31731;DHT22;18310;55.586;12.286;2023-03-08T14:08:03;5.20;36.70
31731;DHT22;18310;55.586;12.286;2023-03-08T14:11:14;6.90;36.90
31731;DHT22;18310;55.586;12.286;2023-03-08T14:14:26;8.50;36.80
31731;DHT22;18310;55.586;12.286;2023-03-08T14:17:34;7.40;36.20
31731;DHT22;18310;55.586;12.286;2023-03-08T14:21:05;7.00;37.00
31731;DHT22;18310;55.586;12.286;2023-03-08T14:24:36;7.00;35.50
31731;DHT22;18310;55.586;12.286;2023-03-08T14:27:41;7.00;37.60
31731;DHT22;18310;55.586;12.286;2023-03-08T14:33:57;7.00;37.10
31731;DHT22;18310;55.586;12.286;2023-03-08T14:37:04;7.10;37.40
31731;DHT22;18310;55.586;12.286;2023-03-08T14:40:21;7.00;35.70
31731;DHT22;18310;55.586;12.286;2023-03-08T14:46:37;7.00;35.70
31731;DHT22;18310;55.586;12.286;2023-03-08T14:49:54;7.00;37.40
31731;DHT22;18310;55.586;12.286;2023-03-08T14:53:26;7.00;36.10
31731;DHT22;18310;55.586;12.286;2023-03-08T14:56:32;6.70;36.40
31731;DHT22;18310;55.586;12.286;2023-03-08T14:59:44;8.10;37.80
31731;DHT22;18310;55.586;12.286;2023-03-08T15:02:48;7.00;37.40
31731;DHT22;18310;55.586;12.286;2023-03-08T15:05:53;6.80;37.30
31731;DHT22;18310;55.586;12.286;2023-03-08T15:09:14;6.90;37.50
31731;DHT22;18310;55.586;12.286;2023-03-08T15:12:21;6.80;38.00
31731;DHT22;18310;55.586;12.286;2023-03-08T15:15:25;6.90;38.00
31731;DHT22;18310;55.586;12.286;2023-03-08T15:18:29;5.40;35.80
31731;DHT22;18310;55.586;12.286;2023-03-08T15:21:35;6.90;37.30
31731;DHT22;18310;55.586;12.286;2023-03-08T15:24:41;6.90;37.00
31731;DHT22;18310;55.586;12.286;2023-03-08T15:27:45;6.90;37.10
31731;DHT22;18310;55.586;12.286;2023-03-08T15:30:52;5.90;36.90
31731;DHT22;18310;55.586;12.286;2023-03-08T15:33:56;6.80;36.30
31731;DHT22;18310;55.586;12.286;2023-03-08T15:37:02;6.70;35.80
31731;DHT22;18310;55.586;12.286;2023-03-08T15:40:11;6.70;37.00
31731;DHT22;18310;55.586;12.286;2023-03-08T15:43:16;6.60;36.30
31731;DHT22;18310;55.586;12.286;2023-03-08T15:46:22;6.60;36.60
31731;DHT22;18310;55.586;12.286;2023-03-08T15:49:25;7.30;36.70
31731;DHT22;18310;55.586;12.286;2023-03-08T15:52:28;6.40;36.80
31731;DHT22;18310;55.586;12.286;2023-03-08T15:55:32;6.40;37.00
31731;DHT22;18310;55.586;12.286;2023-03-08T15:58:37;6.40;37.30
31731;DHT22;18310;55.586;12.286;2023-03-08T16:01:42;6.30;36.90
31731;DHT22;18310;55.586;12.286;2023-03-08T16:04:47;6.30;36.90
31731;DHT22;18310;55.586;12.286;2023-03-08T16:07:53;6.20;36.60
31731;DHT22;18310;55.586;12.286;2023-03-08T16:10:57;6.20;35.50
31731;DHT22;18310;55.586;12.286;2023-03-08T16:14:05;6.10;36.50
31731;DHT22;18310;55.586;12.286;2023-03-08T16:20:17;5.90;35.70
31731;DHT22;18310;55.586;12.286;2023-03-08T16:23:21;5.90;36.50
31731;DHT22;18310;55.586;12.286;2023-03-08T16:26:29;5.90;36.70
31731;DHT22;18310;55.586;12.286;2023-03-08T16:32:39;5.80;36.50
31731;DHT22;18310;55.586;12.286;2023-03-08T16:35:47;5.60;37.10
31731;DHT22;18310;55.586;12.286;2023-03-08T16:38:51;5.60;36.50
31731;DHT22;18310;55.586;12.286;2023-03-08T16:45:03;5.50;36.70
31731;DHT22;18310;55.586;12.286;2023-03-08T16:48:08;8.10;39.70
31731;DHT22;18310;55.586;12.286;2023-03-08T16:51:15;5.40;39.10
31731;DHT22;18310;55.586;12.286;2023-03-08T16:54:20;5.30;39.10
31731;DHT22;18310;55.586;12.286;2023-03-08T16:57:25;5.20;39.90
31731;DHT22;18310;55.586;12.286;2023-03-08T17:00:34;5.20;39.70
31731;DHT22;18310;55.586;12.286;2023-03-08T17:03:41;5.10;39.90
31731;DHT22;18310;55.586;12.286;2023-03-08T17:06:46;6.60;40.80
31731;DHT22;18310;55.586;12.286;2023-03-08T17:09:50;3.30;39.70
31731;DHT22;18310;55.586;12.286;2023-03-08T17:15:58;6.90;41.50
31731;DHT22;18310;55.586;12.286;2023-03-08T17:19:06;4.70;41.20
31731;DHT22;18310;55.586;12.286;2023-03-08T17:22:12;4.60;41.40
31731;DHT22;18310;55.586;12.286;2023-03-08T17:25:16;4.80;41.30
31731;DHT22;18310;55.586;12.286;2023-03-08T17:28:20;4.50;41.10
31731;DHT22;18310;55.586;12.286;2023-03-08T17:31:23;4.50;41.80
31731;DHT22;18310;55.586;12.286;2023-03-08T17:34:28;4.40;41.90
31731;DHT22;18310;55.586;12.286;2023-03-08T17:37:31;4.30;42.50
31731;DHT22;18310;55.586;12.286;2023-03-08T17:49:58;4.40;43.40
31731;DHT22;18310;55.586;12.286;2023-03-08T17:56:15;4.00;44.10
31731;DHT22;18310;55.586;12.286;2023-03-08T18:02:24;3.90;44.40
31731;DHT22;18310;55.586;12.286;2023-03-08T18:05:29;3.10;44.50
31731;DHT22;18310;55.586;12.286;2023-03-08T18:08:34;3.80;45.40
31731;DHT22;18310;55.586;12.286;2023-03-08T18:11:38;3.80;45.90
31731;DHT22;18310;55.586;12.286;2023-03-08T18:14:43;3.70;45.70
31731;DHT22;18310;55.586;12.286;2023-03-08T18:17:48;3.70;46.20
31731;DHT22;18310;55.586;12.286;2023-03-08T18:20:53;3.70;46.30
31731;DHT22;18310;55.586;12.286;2023-03-08T18:24:15;5.10;46.90
31731;DHT22;18310;55.586;12.286;2023-03-08T18:27:19;3.90;46.50
31731;DHT22;18310;55.586;12.286;2023-03-08T18:30:23;3.70;46.70
31731;DHT22;18310;55.586;12.286;2023-03-08T18:33:26;3.60;47.10
31731;DHT22;18310;55.586;12.286;2023-03-08T18:36:31;3.60;46.80
31731;DHT22;18310;55.586;12.286;2023-03-08T18:39:35;3.60;46.90
31731;DHT22;18310;55.586;12.286;2023-03-08T18:42:41;3.50;46.80
31731;DHT22;18310;55.586;12.286;2023-03-08T18:48:55;3.50;46.60
31731;DHT22;18310;55.586;12.286;2023-03-08T18:55:06;3.40;46.90
31731;DHT22;18310;55.586;12.286;2023-03-08T18:58:13;3.40;47.10
31731;DHT22;18310;55.586;12.286;2023-03-08T19:01:16;3.30;47.00
31731;DHT22;18310;55.586;12.286;2023-03-08T19:10:27;3.30;47.40
31731;DHT22;18310;55.586;12.286;2023-03-08T19:13:32;3.00;47.40
31731;DHT22;18310;55.586;12.286;2023-03-08T19:16:35;3.20;47.60
31731;DHT22;18310;55.586;12.286;2023-03-08T19:19:41;3.20;47.70
31731;DHT22;18310;55.586;12.286;2023-03-08T19:22:45;3.20;47.80
31731;DHT22;18310;55.586;12.286;2023-03-08T19:25:48;3.10;47.80
31731;DHT22;18310;55.586;12.286;2023-03-08T19:29:10;3.10;47.80
31731;DHT22;18310;55.586;12.286;2023-03-08T19:32:14;3.10;48.20
31731;DHT22;18310;55.586;12.286;2023-03-08T19:41:32;3.00;47.90
31731;DHT22;18310;55.586;12.286;2023-03-08T19:44:36;3.00;47.90
31731;DHT22;18310;55.586;12.286;2023-03-08T19:53:50;3.00;48.30
31731;DHT22;18310;55.586;12.286;2023-03-08T19:56:56;2.90;48.30
31731;DHT22;18310;55.586;12.286;2023-03-08T20:00:07;2.90;48.30
31731;DHT22;18310;55.586;12.286;2023-03-08T20:03:40;2.90;48.50
31731;DHT22;18310;55.586;12.286;2023-03-08T20:06:44;2.90;48.70
31731;DHT22;18310;55.586;12.286;2023-03-08T20:09:52;2.90;48.90
31731;DHT22;18310;55.586;12.286;2023-03-08T20:12:57;2.80;49.00
31731;DHT22;18310;55.586;12.286;2023-03-08T20:19:03;2.70;49.00
31731;DHT22;18310;55.586;12.286;2023-03-08T20:22:06;2.80;49.20
31731;DHT22;18310;55.586;12.286;2023-03-08T20:28:17;2.70;48.90
31731;DHT22;18310;55.586;12.286;2023-03-08T20:31:21;2.60;48.80
31731;DHT22;18310;55.586;12.286;2023-03-08T20:37:33;2.50;49.10
31731;DHT22;18310;55.586;12.286;2023-03-08T20:40:37;2.60;48.80
31731;DHT22;18310;55.586;12.286;2023-03-08T20:56:07;2.60;48.70
31731;DHT22;18310;55.586;12.286;2023-03-08T20:59:13;2.60;48.80
31731;DHT22;18310;55.586;12.286;2023-03-08T21:02:17;2.40;49.40
31731;DHT22;18310;55.586;12.286;2023-03-08T21:05:20;2.30;49.70
31731;DHT22;18310;55.586;12.286;2023-03-08T21:08:24;2.20;50.50
31731;DHT22;18310;55.586;12.286;2023-03-08T21:11:28;2.20;50.90
31731;DHT22;18310;55.586;12.286;2023-03-08T21:14:35;2.00;51.10
31731;DHT22;18310;55.586;12.286;2023-03-08T21:17:38;1.90;51.10
31731;DHT22;18310;55.586;12.286;2023-03-08T21:30:29;1.60;52.50
31731;DHT22;18310;55.586;12.286;2023-03-08T21:33:32;1.60;52.50
31731;DHT22;18310;55.586;12.286;2023-03-08T21:36:36;1.50;51.90
31731;DHT22;18310;55.586;12.286;2023-03-08T21:39:40;1.50;52.50
31731;DHT22;18310;55.586;12.286;2023-03-08T21:42:45;1.40;52.30
31731;DHT22;18310;55.586;12.286;2023-03-08T21:45:49;1.40;53.50
31731;DHT22;18310;55.586;12.286;2023-03-08T21:48:53;1.40;53.90
31731;DHT22;18310;55.586;12.286;2023-03-08T21:51:57;1.30;54.00
31731;DHT22;18310;55.586;12.286;2023-03-08T21:58:05;1.30;54.20
31731;DHT22;18310;55.586;12.286;2023-03-08T22:01:19;1.40;55.60
31731;DHT22;18310;55.586;12.286;2023-03-08T22:04:26;1.40;54.30
31731;DHT22;18310;55.586;12.286;2023-03-08T22:07:29;1.90;55.10
31731;DHT22;18310;55.586;12.286;2023-03-08T22:10:34;1.30;55.00
31731;DHT22;18310;55.586;12.286;2023-03-08T22:13:39;1.30;56.10
31731;DHT22;18310;55.586;12.286;2023-03-08T22:16:42;1.40;56.10
31731;DHT22;18310;55.586;12.286;2023-03-08T22:22:49;1.40;55.60